createdAt,value
2018-03-07T00:00:32.033Z,3.20
2018-03-07T00:02:58.189Z,3.21
2018-03-07T00:05:24.344Z,3.21
2018-03-07T00:07:50.544Z,3.23
2018-03-07T00:10:16.766Z,3.21
2018-03-07T00:12:42.982Z,3.17
2018-03-07T00:15:09.204Z,3.13
2018-03-07T00:17:35.464Z,3.12
2018-03-07T00:20:01.638Z,3.13
2018-03-07T00:22:27.901Z,3.13
2018-03-07T00:24:54.076Z,3.17
2018-03-07T00:27:20.241Z,3.24
2018-03-07T00:29:46.422Z,3.31
2018-03-07T00:32:12.686Z,3.36
2018-03-07T00:34:38.832Z,3.43
2018-03-07T00:37:05.017Z,3.45
2018-03-07T00:39:31.193Z,3.45
2018-03-07T00:41:57.398Z,3.45
2018-03-07T00:44:23.542Z,3.48
2018-03-07T00:46:49.768Z,3.49
2018-03-07T00:49:15.912Z,3.48
2018-03-07T00:51:42.092Z,3.49
2018-03-07T00:54:08.346Z,3.50
2018-03-07T00:56:34.520Z,3.50
2018-03-07T00:59:00.692Z,3.50
2018-03-07T01:01:26.933Z,3.51
2018-03-07T01:03:53.112Z,3.50
2018-03-07T01:06:20.009Z,3.51
2018-03-07T01:08:46.187Z,3.68
2018-03-07T01:11:12.374Z,3.72
2018-03-07T01:13:38.584Z,3.73
2018-03-07T01:16:04.776Z,3.70
2018-03-07T01:18:30.990Z,3.67
2018-03-07T01:20:57.205Z,3.65
2018-03-07T01:23:23.400Z,3.64
2018-03-07T01:25:49.611Z,3.60
2018-03-07T01:28:15.806Z,3.59
2018-03-07T01:30:42.066Z,3.62
2018-03-07T01:33:08.250Z,3.66
2018-03-07T01:35:34.408Z,3.70
2018-03-07T01:38:00.637Z,3.70
2018-03-07T01:40:26.826Z,3.69
2018-03-07T01:42:52.981Z,3.70
2018-03-07T01:45:19.226Z,3.70
2018-03-07T01:47:45.401Z,3.71
2018-03-07T01:50:12.558Z,3.75
2018-03-07T01:52:38.822Z,3.77
2018-03-07T01:55:05.043Z,3.80
2018-03-07T01:57:31.247Z,3.85
2018-03-07T01:59:57.429Z,3.93
2018-03-07T02:02:23.679Z,3.97
2018-03-07T02:04:49.891Z,3.94
2018-03-07T02:07:16.036Z,3.88
2018-03-07T02:09:42.217Z,3.80
2018-03-07T02:12:08.407Z,3.70
2018-03-07T02:14:34.601Z,3.60
2018-03-07T02:17:01.394Z,3.53
2018-03-07T02:19:27.571Z,3.50
2018-03-07T02:21:53.826Z,3.48
2018-03-07T02:24:19.998Z,3.42
2018-03-07T02:26:46.142Z,3.37
2018-03-07T02:29:12.321Z,3.33
2018-03-07T02:31:38.502Z,3.31
2018-03-07T02:34:04.711Z,3.29
2018-03-07T02:36:31.764Z,3.25
2018-03-07T02:38:57.943Z,3.23
2018-03-07T02:41:24.161Z,3.21
2018-03-07T02:43:50.386Z,3.17
2018-03-07T02:46:16.556Z,3.18
2018-03-07T02:48:42.725Z,3.20
2018-03-07T02:51:08.989Z,3.23
2018-03-07T02:53:35.182Z,3.23
2018-03-07T02:56:01.357Z,3.26
2018-03-07T02:58:27.603Z,3.33
2018-03-07T03:00:53.821Z,3.42
2018-03-07T03:03:19.957Z,3.47
2018-03-07T03:05:46.157Z,3.50
2018-03-07T03:08:12.324Z,3.50
2018-03-07T03:10:39.273Z,3.51
2018-03-07T03:13:05.464Z,3.51
2018-03-07T03:15:31.637Z,3.53
2018-03-07T03:17:57.826Z,3.55
2018-03-07T03:20:24.044Z,3.58
2018-03-07T03:22:50.257Z,3.63
2018-03-07T03:25:16.440Z,3.65
2018-03-07T03:27:42.682Z,3.67
2018-03-07T03:30:08.935Z,3.70
2018-03-07T03:32:35.114Z,3.71
2018-03-07T03:35:01.329Z,3.76
2018-03-07T03:37:27.543Z,3.83
2018-03-07T03:39:53.735Z,3.88
2018-03-07T03:42:20.295Z,3.92
2018-03-07T03:44:46.450Z,3.93
2018-03-07T03:47:12.618Z,3.95
2018-03-07T03:49:38.811Z,4.00
2018-03-07T03:52:05.014Z,4.09
2018-03-07T03:54:32.122Z,4.15
2018-03-07T03:56:58.902Z,4.22
2018-03-07T03:59:25.054Z,4.26
2018-03-07T04:01:51.314Z,4.28
2018-03-07T04:04:17.524Z,4.30
2018-03-07T04:06:43.663Z,4.32
2018-03-07T04:09:09.862Z,4.32
2018-03-07T04:11:36.075Z,4.33
2018-03-07T04:14:02.260Z,4.32
2018-03-07T04:16:29.249Z,4.35
2018-03-07T04:18:55.467Z,4.37
2018-03-07T04:21:21.711Z,4.38
2018-03-07T04:23:47.894Z,4.38
2018-03-07T04:26:14.040Z,4.37
2018-03-07T04:28:40.221Z,4.36
2018-03-07T04:31:06.456Z,4.35
2018-03-07T04:33:32.624Z,4.36
2018-03-07T04:35:58.785Z,4.40
2018-03-07T04:38:26.174Z,4.39
2018-03-07T04:40:52.375Z,4.40
2018-03-07T04:43:18.563Z,4.45
2018-03-07T04:45:44.730Z,4.47
2018-03-07T04:48:10.901Z,4.46
2018-03-07T04:50:37.043Z,4.47
2018-03-07T04:53:03.281Z,4.48
2018-03-07T04:55:29.434Z,4.48
2018-03-07T04:57:55.597Z,4.50
2018-03-07T05:00:21.825Z,4.50
2018-03-07T05:02:48.084Z,4.50
2018-03-07T05:05:14.236Z,4.52
2018-03-07T05:07:40.404Z,4.54
2018-03-07T05:10:06.565Z,4.57
2018-03-07T05:12:32.856Z,4.56
2018-03-07T05:14:59.032Z,4.58
2018-03-07T05:17:25.213Z,4.57
2018-03-07T05:19:51.410Z,4.56
2018-03-07T05:22:17.946Z,4.54
2018-03-07T05:24:44.115Z,4.53
2018-03-07T05:27:10.260Z,4.51
2018-03-07T05:29:36.496Z,4.52
2018-03-07T05:32:02.965Z,4.51
2018-03-07T05:34:29.088Z,4.51
2018-03-07T05:36:55.271Z,4.51
2018-03-07T05:39:21.447Z,4.52
2018-03-07T05:41:47.660Z,4.51
2018-03-07T05:44:13.782Z,4.51
2018-03-07T05:46:40.135Z,4.50
2018-03-07T05:49:06.293Z,4.48
2018-03-07T05:51:32.488Z,4.48
2018-03-07T05:53:59.517Z,4.47
2018-03-07T05:56:25.722Z,4.47
2018-03-07T05:58:51.913Z,4.47
2018-03-07T06:01:18.132Z,4.48
2018-03-07T06:03:44.293Z,4.48
2018-03-07T06:06:10.506Z,4.50
2018-03-07T06:08:36.660Z,4.51
2018-03-07T06:11:02.841Z,4.53
2018-03-07T06:13:29.080Z,4.56
2018-03-07T06:15:55.277Z,4.57
2018-03-07T06:18:21.520Z,4.59
2018-03-07T06:20:47.712Z,4.61
2018-03-07T06:23:13.962Z,4.65
2018-03-07T06:25:40.205Z,4.66
2018-03-07T06:28:06.341Z,4.70
2018-03-07T06:30:32.600Z,4.74
2018-03-07T06:32:58.856Z,4.74
2018-03-07T06:35:25.079Z,4.76
2018-03-07T06:37:51.195Z,4.79
2018-03-07T06:40:17.376Z,4.82
2018-03-07T06:42:43.614Z,4.84
2018-03-07T06:45:09.805Z,4.87
2018-03-07T06:47:36.002Z,4.89
2018-03-07T06:50:02.247Z,4.89
2018-03-07T06:52:28.428Z,4.91
2018-03-07T06:54:54.569Z,4.92
2018-03-07T06:57:20.757Z,4.96
2018-03-07T06:59:46.961Z,4.98
2018-03-07T07:02:13.233Z,5.04
2018-03-07T07:04:39.432Z,5.08
2018-03-07T07:07:05.629Z,5.13
2018-03-07T07:09:31.783Z,5.18
2018-03-07T07:11:58.017Z,5.23
2018-03-07T07:14:24.171Z,5.26
2018-03-07T07:16:50.439Z,5.31
2018-03-07T07:19:16.656Z,5.34
2018-03-07T07:21:42.925Z,5.37
2018-03-07T07:24:09.074Z,5.37
2018-03-07T07:26:35.281Z,5.38
2018-03-07T07:29:01.523Z,5.39
2018-03-07T07:31:27.698Z,5.38
2018-03-07T07:33:53.898Z,5.37
2018-03-07T07:36:20.023Z,5.38
2018-03-07T07:38:46.197Z,5.39
2018-03-07T07:41:12.364Z,5.40
2018-03-07T07:43:38.600Z,5.42
2018-03-07T07:46:04.752Z,5.45
2018-03-07T07:48:31.004Z,5.47
2018-03-07T07:50:57.208Z,5.51
2018-03-07T07:53:23.420Z,5.52
2018-03-07T07:55:49.581Z,5.52
2018-03-07T07:58:15.740Z,5.53
2018-03-07T08:00:42.007Z,5.52
2018-03-07T08:03:08.255Z,5.53
2018-03-07T08:05:34.421Z,5.54
2018-03-07T08:08:00.580Z,5.54
2018-03-07T08:10:26.747Z,5.55
2018-03-07T08:12:52.995Z,5.54
2018-03-07T08:15:19.168Z,5.52
2018-03-07T08:17:45.333Z,5.52
2018-03-07T08:20:11.682Z,5.51
2018-03-07T08:22:37.920Z,5.49
2018-03-07T08:25:04.158Z,5.51
2018-03-07T08:27:30.357Z,5.52
2018-03-07T08:29:56.568Z,5.53
2018-03-07T08:32:22.751Z,5.54
2018-03-07T08:34:48.920Z,5.57
2018-03-07T08:37:15.085Z,5.61
2018-03-07T08:39:41.331Z,5.66
2018-03-07T08:42:07.575Z,5.78
2018-03-07T08:44:33.720Z,5.90
2018-03-07T08:46:59.899Z,6.11
2018-03-07T08:49:26.086Z,6.43
2018-03-07T08:51:52.231Z,6.69
2018-03-07T08:54:18.451Z,6.90
2018-03-07T08:56:44.609Z,7.02
2018-03-07T08:59:10.772Z,7.16
2018-03-07T09:01:37.020Z,7.31
2018-03-07T09:04:03.254Z,7.35
2018-03-07T09:06:29.451Z,7.32
2018-03-07T09:08:55.633Z,7.21
2018-03-07T09:11:21.861Z,7.28
2018-03-07T09:13:48.017Z,7.28
2018-03-07T09:16:14.208Z,7.40
2018-03-07T09:18:40.420Z,7.46
2018-03-07T09:21:06.604Z,7.42
2018-03-07T09:23:32.880Z,7.51
2018-03-07T09:25:59.041Z,7.50
2018-03-07T09:28:25.257Z,7.51
2018-03-07T09:30:51.457Z,7.48
2018-03-07T09:33:17.628Z,7.41
2018-03-07T09:35:43.735Z,7.35
2018-03-07T09:38:09.836Z,7.34
2018-03-07T09:40:36.014Z,7.48
2018-03-07T09:43:02.191Z,7.53
2018-03-07T09:45:28.384Z,7.53
2018-03-07T09:47:54.565Z,7.55
2018-03-07T09:50:20.751Z,7.48
2018-03-07T09:52:46.972Z,7.47
2018-03-07T09:55:13.171Z,7.45
2018-03-07T09:57:39.316Z,7.53
2018-03-07T10:00:05.594Z,7.50
2018-03-07T10:02:31.797Z,7.50
2018-03-07T10:04:57.980Z,7.45
2018-03-07T10:07:24.168Z,7.46
2018-03-07T10:09:50.426Z,7.49
2018-03-07T10:12:16.662Z,7.48
2018-03-07T10:14:42.862Z,7.47
2018-03-07T10:17:09.015Z,7.43
2018-03-07T10:19:35.185Z,7.41
2018-03-07T10:22:01.484Z,7.53
2018-03-07T10:24:27.686Z,7.59
2018-03-07T10:26:53.880Z,7.64
2018-03-07T10:29:20.079Z,7.69
2018-03-07T10:31:46.304Z,7.65
2018-03-07T10:34:12.522Z,7.61
2018-03-07T10:36:38.778Z,7.59
2018-03-07T10:39:04.997Z,7.62
2018-03-07T10:41:31.204Z,7.60
2018-03-07T10:43:57.443Z,7.55
2018-03-07T10:46:23.933Z,7.51
2018-03-07T10:48:50.101Z,7.57
2018-03-07T10:51:16.265Z,7.59
2018-03-07T10:53:42.484Z,7.52
2018-03-07T10:56:08.692Z,7.50
2018-03-07T10:58:35.101Z,7.51
2018-03-07T11:01:01.321Z,7.60
2018-03-07T11:03:27.550Z,7.80
2018-03-07T11:05:53.770Z,7.96
2018-03-07T11:08:19.983Z,7.93
2018-03-07T11:10:46.157Z,7.88
2018-03-07T11:13:12.385Z,7.90
2018-03-07T11:15:38.548Z,7.89
2018-03-07T11:18:04.727Z,7.91
2018-03-07T11:20:30.865Z,7.99
2018-03-07T11:22:57.081Z,8.07
2018-03-07T11:25:23.242Z,8.15
2018-03-07T11:27:49.418Z,8.10
2018-03-07T11:30:16.142Z,8.03
2018-03-07T11:32:42.360Z,8.03
2018-03-07T11:35:08.573Z,8.03
2018-03-07T11:37:34.822Z,7.91
2018-03-07T11:40:01.058Z,7.84
2018-03-07T11:42:27.310Z,7.83
2018-03-07T11:44:53.519Z,7.65
2018-03-07T11:47:19.691Z,7.57
2018-03-07T11:49:45.884Z,7.49
2018-03-07T11:52:12.041Z,7.44
2018-03-07T11:54:38.262Z,7.42
2018-03-07T11:57:04.477Z,7.44
2018-03-07T11:59:30.621Z,7.42
2018-03-07T12:01:56.857Z,7.48
2018-03-07T12:04:23.100Z,7.55
2018-03-07T12:06:49.313Z,7.60
2018-03-07T12:09:15.461Z,7.74
2018-03-07T12:11:41.660Z,7.73
2018-03-07T12:14:07.884Z,7.84
2018-03-07T12:16:34.069Z,7.88
2018-03-07T12:19:00.326Z,7.89
2018-03-07T12:21:26.532Z,7.90
2018-03-07T12:23:52.772Z,7.92
2018-03-07T12:26:18.927Z,7.82
2018-03-07T12:28:45.126Z,7.73
2018-03-07T12:31:11.332Z,7.72
2018-03-07T12:33:37.537Z,7.74
2018-03-07T12:36:03.737Z,7.75
2018-03-07T12:38:29.935Z,7.73
2018-03-07T12:40:56.083Z,7.73
2018-03-07T12:43:22.363Z,7.73
2018-03-07T12:45:48.651Z,7.74
2018-03-07T12:48:14.834Z,7.73
2018-03-07T12:50:41.012Z,7.70
2018-03-07T12:53:07.196Z,7.63
2018-03-07T12:55:33.427Z,7.58
2018-03-07T12:57:59.600Z,7.58
2018-03-07T13:00:25.846Z,7.61
2018-03-07T13:02:52.060Z,7.63
2018-03-07T13:05:18.274Z,7.67
2018-03-07T13:07:44.471Z,7.70
2018-03-07T13:10:10.657Z,7.74
2018-03-07T13:12:36.789Z,7.76
2018-03-07T13:15:03.049Z,7.75
2018-03-07T13:17:29.229Z,7.71
2018-03-07T13:19:55.392Z,7.74
2018-03-07T13:22:21.600Z,7.72
2018-03-07T13:24:47.817Z,7.71
2018-03-07T13:27:13.970Z,7.69
2018-03-07T13:29:40.265Z,7.67
2018-03-07T13:32:06.452Z,7.68
2018-03-07T13:34:32.855Z,7.64
2018-03-07T13:36:59.019Z,7.65
2018-03-07T13:39:25.238Z,7.67
2018-03-07T13:41:51.471Z,7.68
2018-03-07T13:44:17.675Z,7.64
2018-03-07T13:46:43.824Z,7.63
2018-03-07T13:49:09.997Z,7.65
2018-03-07T13:51:36.181Z,7.62
2018-03-07T13:54:02.424Z,7.59
2018-03-07T13:56:28.593Z,7.60
2018-03-07T13:58:54.724Z,7.61
2018-03-07T14:01:20.982Z,7.60
2018-03-07T14:03:47.241Z,7.56
2018-03-07T14:06:13.445Z,7.56
2018-03-07T14:08:39.613Z,7.55
2018-03-07T14:11:05.802Z,7.53
2018-03-07T14:13:31.943Z,7.48
2018-03-07T14:15:58.218Z,7.41
2018-03-07T14:18:24.509Z,7.39
2018-03-07T14:20:50.668Z,7.36
2018-03-07T14:23:17.027Z,7.34
2018-03-07T14:25:43.323Z,7.34
2018-03-07T14:28:09.521Z,7.37
2018-03-07T14:30:35.771Z,7.32
2018-03-07T14:33:02.001Z,7.34
2018-03-07T14:35:28.256Z,7.34
2018-03-07T14:37:54.437Z,7.30
2018-03-07T14:40:20.578Z,7.31
2018-03-07T14:42:46.807Z,7.12
2018-03-07T14:45:13.138Z,6.97
2018-03-07T14:47:39.283Z,6.91
2018-03-07T14:50:05.444Z,6.85
2018-03-07T14:52:31.624Z,6.80
2018-03-07T14:54:57.837Z,6.81
2018-03-07T14:57:23.977Z,6.80
2018-03-07T14:59:50.214Z,6.79
2018-03-07T15:02:16.386Z,6.78
2018-03-07T15:04:42.594Z,6.75
2018-03-07T15:07:08.812Z,6.65
2018-03-07T15:09:35.044Z,6.57
2018-03-07T15:12:01.557Z,6.42
2018-03-07T15:14:27.809Z,6.30
2018-03-07T15:16:53.971Z,6.22
2018-03-07T15:19:20.123Z,6.15
2018-03-07T15:21:46.343Z,6.10
2018-03-07T15:24:12.588Z,6.10
2018-03-07T15:26:38.837Z,6.11
2018-03-07T15:29:05.101Z,6.11
2018-03-07T15:31:31.439Z,6.12
2018-03-07T15:33:57.652Z,6.13
2018-03-07T15:36:23.866Z,6.14
2018-03-07T15:38:50.132Z,6.14
2018-03-07T15:41:16.381Z,6.12
2018-03-07T15:43:42.604Z,6.08
2018-03-07T15:46:08.815Z,6.07
2018-03-07T15:48:35.011Z,6.05
2018-03-07T15:51:01.185Z,6.06
2018-03-07T15:53:27.451Z,6.03
2018-03-07T15:55:53.758Z,6.07
2018-03-07T15:58:19.951Z,6.05
2018-03-07T16:00:46.244Z,6.02
2018-03-07T16:03:12.434Z,6.00
2018-03-07T16:05:38.668Z,6.00
2018-03-07T16:08:04.910Z,6.00
2018-03-07T16:10:31.094Z,5.97
2018-03-07T16:12:57.281Z,5.95
2018-03-07T16:15:23.521Z,5.95
2018-03-07T16:17:49.713Z,5.96
2018-03-07T16:20:15.980Z,5.97
2018-03-07T16:22:42.213Z,5.99
2018-03-07T16:25:08.405Z,5.98
2018-03-07T16:27:34.625Z,5.98
2018-03-07T16:30:00.882Z,6.00
2018-03-07T16:32:27.102Z,6.03
2018-03-07T16:34:53.328Z,6.09
2018-03-07T16:37:19.491Z,6.11
2018-03-07T16:39:45.661Z,6.12
2018-03-07T16:42:11.840Z,6.13
2018-03-07T16:44:38.099Z,6.16
2018-03-07T16:47:04.281Z,6.18
2018-03-07T16:49:30.452Z,6.20
2018-03-07T16:51:56.646Z,6.17
2018-03-07T16:54:22.937Z,6.15
2018-03-07T16:56:49.272Z,6.17
2018-03-07T16:59:15.452Z,6.16
2018-03-07T17:01:41.710Z,6.18
2018-03-07T17:04:07.952Z,6.19
2018-03-07T17:06:34.206Z,6.22
2018-03-07T17:09:00.403Z,6.17
2018-03-07T17:11:26.631Z,6.10
2018-03-07T17:13:52.828Z,5.99
2018-03-07T17:16:19.071Z,5.90
2018-03-07T17:18:45.272Z,5.84
2018-03-07T17:21:11.439Z,5.77
2018-03-07T17:23:37.669Z,5.71
2018-03-07T17:26:03.938Z,5.66
2018-03-07T17:28:30.088Z,5.63
2018-03-07T17:30:56.345Z,5.60
2018-03-07T17:33:22.543Z,5.57
2018-03-07T17:35:48.776Z,5.58
2018-03-07T17:38:15.077Z,5.57
2018-03-07T17:40:41.233Z,5.57
2018-03-07T17:43:07.404Z,5.57
2018-03-07T17:45:33.713Z,5.54
2018-03-07T17:47:59.891Z,5.50
2018-03-07T17:50:26.061Z,5.48
2018-03-07T17:52:52.243Z,5.47
2018-03-07T17:55:18.463Z,5.45
2018-03-07T17:57:44.733Z,5.46
2018-03-07T18:00:10.944Z,5.46
2018-03-07T18:02:37.073Z,5.48
2018-03-07T18:05:03.310Z,5.49
2018-03-07T18:07:29.437Z,5.55
2018-03-07T18:09:55.537Z,5.61
2018-03-07T18:12:21.663Z,5.64
2018-03-07T18:14:47.848Z,5.67
2018-03-07T18:17:13.966Z,5.71
2018-03-07T18:19:40.115Z,5.75
2018-03-07T18:22:06.224Z,5.81
2018-03-07T18:24:32.316Z,5.85
2018-03-07T18:26:58.503Z,5.90
2018-03-07T18:29:24.618Z,5.91
2018-03-07T18:31:50.829Z,5.90
2018-03-07T18:34:16.985Z,5.90
2018-03-07T18:36:43.184Z,5.96
2018-03-07T18:39:09.299Z,5.98
2018-03-07T18:41:35.429Z,6.02
2018-03-07T18:44:01.596Z,6.03
2018-03-07T18:46:27.835Z,6.03
2018-03-07T18:48:54.986Z,6.03
2018-03-07T18:51:22.083Z,6.01
2018-03-07T18:53:48.264Z,5.97
2018-03-07T18:56:14.482Z,5.93
2018-03-07T18:58:40.726Z,5.92
2018-03-07T19:01:06.934Z,5.91
2018-03-07T19:03:33.074Z,5.91
2018-03-07T19:05:59.415Z,5.86
2018-03-07T19:08:25.589Z,5.80
2018-03-07T19:10:53.472Z,5.74
2018-03-07T19:13:19.615Z,5.65
2018-03-07T19:15:45.867Z,5.61
2018-03-07T19:18:12.078Z,5.61
2018-03-07T19:20:38.230Z,5.63
2018-03-07T19:23:04.381Z,5.62
2018-03-07T19:25:30.616Z,5.60
2018-03-07T19:27:56.768Z,5.57
2018-03-07T19:30:22.979Z,5.50
2018-03-07T19:32:49.187Z,5.40
2018-03-07T19:35:15.376Z,5.33
2018-03-07T19:37:41.575Z,5.28
2018-03-07T19:40:07.821Z,5.17
2018-03-07T19:42:34.010Z,5.10
2018-03-07T19:45:00.188Z,5.05
2018-03-07T19:47:26.417Z,4.99
2018-03-07T19:49:52.628Z,4.95
2018-03-07T19:52:18.772Z,4.89
2018-03-07T19:54:45.019Z,4.84
2018-03-07T19:57:11.240Z,4.82
2018-03-07T19:59:37.468Z,4.78
2018-03-07T20:02:03.738Z,4.75
2018-03-07T20:04:29.952Z,4.73
2018-03-07T20:06:56.476Z,4.68
2018-03-07T20:09:22.623Z,4.64
2018-03-07T20:11:48.819Z,4.63
2018-03-07T20:14:15.022Z,4.63
2018-03-07T20:16:41.232Z,4.58
2018-03-07T20:19:07.366Z,4.55
2018-03-07T20:21:33.576Z,4.58
2018-03-07T20:23:59.703Z,4.56
2018-03-07T20:26:25.891Z,4.55
2018-03-07T20:28:53.020Z,4.52
2018-03-07T20:31:19.257Z,4.50
2018-03-07T20:33:45.409Z,4.48
2018-03-07T20:36:11.664Z,4.44
2018-03-07T20:38:37.846Z,4.40
2018-03-07T20:41:04.845Z,4.36
2018-03-07T20:43:31.076Z,4.34
2018-03-07T20:45:57.297Z,4.29
2018-03-07T20:48:23.463Z,4.26
2018-03-07T20:50:49.705Z,4.23
2018-03-07T20:53:15.865Z,4.21
2018-03-07T20:55:42.090Z,4.17
2018-03-07T20:58:08.277Z,4.14
2018-03-07T21:00:34.503Z,4.15
2018-03-07T21:03:00.665Z,4.14
2018-03-07T21:05:26.901Z,4.13
2018-03-07T21:07:53.088Z,4.11
2018-03-07T21:10:19.266Z,4.13
2018-03-07T21:12:45.474Z,4.11
2018-03-07T21:15:11.781Z,4.09
2018-03-07T21:17:37.956Z,4.05
2018-03-07T21:20:04.151Z,4.06
2018-03-07T21:22:30.358Z,4.06
2018-03-07T21:24:56.628Z,4.03
2018-03-07T21:27:22.817Z,4.03
2018-03-07T21:29:49.018Z,4.04
2018-03-07T21:32:15.194Z,4.02
2018-03-07T21:34:41.352Z,4.00
2018-03-07T21:37:07.536Z,4.01
2018-03-07T21:39:33.735Z,4.00
2018-03-07T21:41:59.889Z,4.01
2018-03-07T21:44:26.068Z,3.99
2018-03-07T21:46:52.300Z,3.95
2018-03-07T21:49:18.491Z,3.92
2018-03-07T21:51:44.681Z,3.90
2018-03-07T21:54:10.909Z,3.89
2018-03-07T21:56:37.134Z,3.85
2018-03-07T21:59:03.305Z,3.81
2018-03-07T22:01:29.533Z,3.80
2018-03-07T22:03:55.782Z,3.76
2018-03-07T22:06:22.038Z,3.74
2018-03-07T22:08:48.220Z,3.70
2018-03-07T22:11:14.371Z,3.69
2018-03-07T22:13:40.582Z,3.65
2018-03-07T22:16:06.838Z,3.63
2018-03-07T22:18:33.000Z,3.60
2018-03-07T22:20:59.152Z,3.58
2018-03-07T22:23:25.313Z,3.57
2018-03-07T22:25:51.523Z,3.55
2018-03-07T22:28:17.657Z,3.55
2018-03-07T22:30:43.903Z,3.57
2018-03-07T22:33:10.089Z,3.54
2018-03-07T22:35:36.268Z,3.54
2018-03-07T22:38:02.468Z,3.55
2018-03-07T22:40:28.655Z,3.53
2018-03-07T22:42:54.826Z,3.51
2018-03-07T22:45:27.845Z,3.49
2018-03-07T22:47:54.026Z,3.46
2018-03-07T22:50:20.180Z,3.42
2018-03-07T22:52:46.373Z,3.41
2018-03-07T22:55:12.554Z,3.38
2018-03-07T22:57:38.728Z,3.41
2018-03-07T23:00:11.062Z,3.41
2018-03-07T23:02:37.246Z,3.42
2018-03-07T23:05:03.475Z,3.46
2018-03-07T23:07:29.702Z,3.47
2018-03-07T23:09:55.849Z,3.47
2018-03-07T23:12:22.035Z,3.48
2018-03-07T23:14:48.214Z,3.45
2018-03-07T23:17:14.488Z,3.43
2018-03-07T23:19:40.659Z,3.41
2018-03-07T23:22:06.831Z,3.38
2018-03-07T23:24:33.074Z,3.34
2018-03-07T23:26:59.295Z,3.32
2018-03-07T23:29:25.478Z,3.32
2018-03-07T23:31:51.697Z,3.29
2018-03-07T23:34:17.852Z,3.26
2018-03-07T23:36:44.037Z,3.24
2018-03-07T23:39:10.226Z,3.23
2018-03-07T23:41:36.370Z,3.24
2018-03-07T23:44:02.533Z,3.23
2018-03-07T23:46:28.766Z,3.25
2018-03-07T23:48:54.915Z,3.23
2018-03-07T23:51:21.054Z,3.23
2018-03-07T23:53:47.255Z,3.19
2018-03-07T23:56:13.473Z,3.18
2018-03-07T23:58:39.595Z,3.16
